Time;durP1;ratioP1;P1;durP2;ratioP2;P2;SDS_P1;SDS_P2;PMS_P1;PMS_P2;Temp;Humidity;BMP_temperature;BMP_pressure;BME280_temperature;BME280_humidity;BME280_pressure;Samples;Min_cycle;Max_cycle;Signal;HPM_P1;HPM_P2
2024/01/29 00:00:08;;;;;;;5.73;3.33;;;6.60;74.40;;;8.08;50.08;102489.97;3081946;46;20984;-74
2024/01/29 00:02:38;;;;;;;5.17;2.57;;;6.60;74.50;;;8.08;49.99;102480.28;3081987;46;20438;-73
2024/01/29 00:05:06;;;;;;;4.60;2.63;;;6.60;74.40;;;8.09;50.08;102484.59;3081810;46;20427;-74
2024/01/29 00:07:34;;;;;;;4.73;2.73;;;6.60;74.50;;;8.06;50.01;102484.81;3081499;46;20471;-75
2024/01/29 00:10:05;;;;;;;4.83;2.87;;;6.60;74.30;;;8.04;50.16;102484.09;3081818;46;20431;-74
2024/01/29 00:12:34;;;;;;;2.97;2.30;;;6.60;74.30;;;8.02;49.99;102480.78;3081180;46;20447;-73
2024/01/29 00:15:03;;;;;;;3.03;2.37;;;6.60;74.40;;;8.02;50.03;102487.78;3081571;46;20584;-74
2024/01/29 00:17:31;;;;;;;3.47;2.50;;;6.60;74.60;;;8.00;50.20;102482.69;3081381;46;20491;-74
2024/01/29 00:20:00;;;;;;;4.17;2.83;;;6.60;74.80;;;7.99;50.53;102491.47;3081710;46;20505;-73
2024/01/29 00:22:29;;;;;;;5.73;2.63;;;6.50;74.70;;;7.98;50.53;102473.25;3081763;46;20451;-74
2024/01/29 00:24:57;;;;;;;3.87;2.50;;;6.50;74.90;;;7.93;50.70;102468.34;3081610;46;20459;-73
2024/01/29 00:27:26;;;;;;;3.77;2.73;;;6.50;74.90;;;7.93;50.71;102465.72;3081245;46;20588;-73
2024/01/29 00:29:56;;;;;;;3.03;2.57;;;6.50;75.10;;;7.90;50.70;102471.19;3081111;46;21068;-74
2024/01/29 00:32:25;;;;;;;5.10;2.53;;;6.50;75.10;;;7.86;50.71;102464.53;3081688;46;20455;-74
2024/01/29 00:34:53;;;;;;;3.70;3.00;;;6.50;75.10;;;7.84;50.53;102470.81;3081579;46;21073;-73
2024/01/29 00:37:26;;;;;;;3.93;3.00;;;6.40;75.00;;;7.84;50.93;102482.16;3081389;46;20562;-74
2024/01/29 00:39:54;;;;;;;5.53;2.73;;;6.40;75.20;;;7.82;50.95;102478.78;3081556;46;20464;-73
2024/01/29 00:42:23;;;;;;;3.80;2.23;;;6.40;75.20;;;7.81;50.96;102476.28;3081415;46;20544;-73
2024/01/29 00:44:52;;;;;;;4.23;3.00;;;6.40;75.40;;;7.79;51.00;102476.41;3081303;46;20475;-74
2024/01/29 00:47:20;;;;;;;3.97;2.50;;;6.30;75.40;;;7.79;50.88;102479.03;3080225;46;20465;-74
2024/01/29 00:49:48;;;;;;;5.57;2.73;;;6.30;75.50;;;7.76;50.75;102479.25;3081481;46;20564;-74
2024/01/29 00:52:17;;;;;;;4.13;2.60;;;6.30;75.50;;;7.75;51.03;102472.31;3081419;46;20427;-74
2024/01/29 00:54:46;;;;;;;2.83;2.60;;;6.30;75.60;;;7.73;51.07;102476.00;3081210;46;20696;-74
2024/01/29 00:57:15;;;;;;;4.03;2.50;;;6.30;75.60;;;7.70;51.14;102471.81;3081012;46;20431;-74
2024/01/29 00:59:44;;;;;;;3.60;2.67;;;6.20;75.70;;;7.69;50.95;102466.72;3081191;46;21373;-74
2024/01/29 01:02:12;;;;;;;3.30;2.50;;;6.20;75.80;;;7.64;50.95;102471.44;3080981;46;20541;-74
2024/01/29 01:04:40;;;;;;;5.90;2.80;;;6.20;75.90;;;7.60;51.20;102468.22;3081248;46;20459;-74
2024/01/29 01:07:09;;;;;;;5.07;3.10;;;6.20;75.90;;;7.58;51.50;102464.91;3081204;46;20433;-73
2024/01/29 01:09:38;;;;;;;2.93;2.60;;;6.10;75.90;;;7.55;51.36;102459.88;3081226;46;20504;-73
2024/01/29 01:12:06;;;;;;;4.93;3.00;;;6.10;75.90;;;7.56;51.49;102451.03;3081306;46;20428;-74
2024/01/29 01:14:34;;;;;;;4.83;2.60;;;6.10;76.00;;;7.55;51.36;102459.88;3081274;46;20452;-74
2024/01/29 01:17:04;;;;;;;4.33;2.83;;;6.10;76.10;;;7.54;51.36;102460.81;3080895;46;20458;-73
2024/01/29 01:19:33;;;;;;;4.63;2.77;;;6.10;76.00;;;7.51;51.12;102463.66;3080787;46;20455;-74
2024/01/29 01:22:01;;;;;;;3.03;2.40;;;6.10;75.90;;;7.48;51.02;102463.88;3081152;46;20431;-73
2024/01/29 01:24:30;;;;;;;5.13;2.40;;;6.10;75.70;;;7.48;50.96;102461.25;3081256;46;20568;-74
2024/01/29 01:26:58;;;;;;;3.13;2.63;;;6.10;75.60;;;7.48;50.93;102466.50;3080075;46;20482;-73
2024/01/29 01:29:27;;;;;;;5.40;2.20;;;6.10;75.60;;;7.49;50.98;102466.38;3080917;46;20451;-73
2024/01/29 01:31:55;;;;;;;2.87;2.20;;;6.00;75.60;;;7.50;50.91;102470.69;3080946;46;20464;-74
2024/01/29 01:34:23;;;;;;;3.27;2.47;;;6.00;75.50;;;7.53;51.00;102469.63;3080668;46;20431;-74
2024/01/29 01:36:52;;;;;;;3.57;2.10;;;6.00;75.40;;;7.54;51.03;102466.03;3080485;46;20477;-74
2024/01/29 01:39:20;;;;;;;4.20;2.43;;;6.10;75.70;;;7.55;50.96;102464.25;3080643;46;21139;-74
2024/01/29 01:41:52;;;;;;;3.03;2.47;;;6.00;75.80;;;7.56;50.97;102465.94;3081067;46;20434;-73
2024/01/29 01:44:20;;;;;;;4.83;2.37;;;6.00;75.80;;;7.56;51.01;102469.38;3080613;46;20515;-73
2024/01/29 01:46:48;;;;;;;3.50;1.87;;;6.00;75.80;;;7.56;51.15;102464.13;3080577;46;20459;-74
2024/01/29 01:49:19;;;;;;;2.90;2.50;;;6.00;75.80;;;7.55;50.96;102470.34;3080196;46;20466;-74
2024/01/29 01:51:50;;;;;;;3.83;2.33;;;6.00;75.60;;;7.53;50.63;102469.63;3080534;46;21015;-74
2024/01/29 01:54:19;;;;;;;3.20;2.37;;;6.00;75.50;;;7.55;50.87;102469.50;3079815;46;20443;-73
2024/01/29 01:56:50;;;;;;;3.60;2.50;;;6.00;75.50;;;7.53;50.81;102474.03;3080169;46;21055;-73
2024/01/29 01:59:20;;;;;;;4.63;2.57;;;6.00;75.60;;;7.53;50.93;102482.72;3081689;46;20518;-74
2024/01/29 02:01:49;;;;;;;3.07;2.43;;;6.00;75.60;;;7.53;50.74;102483.53;3083076;46;20472;-74
2024/01/29 02:04:17;;;;;;;3.30;2.13;;;6.00;75.50;;;7.53;50.86;102482.72;3083207;46;20427;-73
2024/01/29 02:06:47;;;;;;;2.57;2.30;;;6.00;75.60;;;7.53;50.64;102488.78;3082716;46;20434;-74
2024/01/29 02:09:16;;;;;;;5.60;2.20;;;6.00;75.60;;;7.53;50.65;102499.25;3082039;46;20462;-74
2024/01/29 02:11:44;;;;;;;4.03;2.90;;;6.00;75.60;;;7.55;50.62;102503.56;3083083;46;20426;-74
2024/01/29 02:14:13;;;;;;;3.27;2.20;;;6.00;75.60;;;7.56;50.38;102503.44;3082918;46;20496;-74
2024/01/29 02:16:41;;;;;;;3.10;1.97;;;6.00;75.70;;;7.58;50.84;102498.09;3082903;46;20439;-74
2024/01/29 02:19:17;;;;;;;2.30;2.07;;;5.90;75.60;;;7.57;50.83;102494.66;3082605;46;20445;-75
2024/01/29 02:21:45;;;;;;;5.13;2.53;;;6.00;75.80;;;7.61;50.56;102500.50;3083130;46;20568;-74
2024/01/29 02:24:14;;;;;;;2.97;2.23;;;6.00;75.80;;;7.61;50.53;102501.31;3083181;46;21008;-73
2024/01/29 02:26:47;;;;;;;2.60;2.00;;;6.00;75.60;;;7.61;50.32;102495.28;3082703;46;20460;-73
2024/01/29 02:29:15;;;;;;;2.60;2.30;;;6.00;75.30;;;7.64;50.49;102490.63;3082381;46;20458;-74
2024/01/29 02:31:44;;;;;;;3.23;1.97;;;6.00;75.40;;;7.67;50.49;102500.06;3082634;46;20579;-74
2024/01/29 02:34:12;;;;;;;4.93;2.27;;;6.00;75.40;;;7.69;50.30;102498.16;3082172;46;21069;-73
2024/01/29 02:36:41;;;;;;;3.47;2.60;;;6.10;75.40;;;7.71;50.26;102491.00;3082438;46;20438;-74
2024/01/29 02:39:09;;;;;;;3.63;2.10;;;6.10;75.50;;;7.74;50.41;102486.41;3082329;46;20518;-74
2024/01/29 02:41:37;;;;;;;2.80;2.20;;;6.10;75.50;;;7.75;50.44;102498.53;3082670;46;20432;-75
2024/01/29 02:44:06;;;;;;;2.73;2.20;;;6.10;75.40;;;7.77;50.26;102496.66;3082940;46;20460;-73
2024/01/29 02:46:34;;;;;;;2.53;2.20;;;6.10;75.30;;;7.77;50.25;102494.03;3082567;46;20515;-74
2024/01/29 02:49:02;;;;;;;4.80;2.10;;;6.10;75.30;;;7.77;50.16;102495.81;3082452;46;20582;-74
2024/01/29 02:51:31;;;;;;;4.63;2.33;;;6.10;75.10;;;7.78;49.95;102503.56;3082480;46;21021;-74
2024/01/29 02:53:59;;;;;;;3.97;2.53;;;6.10;75.00;;;7.79;49.98;102500.00;3082766;46;20448;-73
2024/01/29 02:56:28;;;;;;;2.97;2.17;;;6.20;75.10;;;7.80;50.06;102501.66;3082531;46;20431;-74
2024/01/29 02:58:56;;;;;;;2.57;2.17;;;6.20;75.00;;;7.81;50.08;102498.09;3082160;46;20443;-74
2024/01/29 03:01:25;;;;;;;2.77;2.07;;;6.20;75.00;;;7.82;50.03;102510.22;3081815;46;20504;-75
2024/01/29 03:03:53;;;;;;;2.37;1.70;;;6.20;74.90;;;7.82;49.97;102494.50;3082580;46;20437;-74
2024/01/29 03:06:22;;;;;;;3.67;2.33;;;6.20;74.90;;;7.84;49.97;102497.88;3082516;46;20489;-73
2024/01/29 03:08:51;;;;;;;3.23;2.90;;;6.20;75.00;;;7.83;50.26;102490.94;3082101;46;20444;-73
2024/01/29 03:11:19;;;;;;;2.77;2.10;;;6.20;74.90;;;7.82;49.96;102493.69;3081793;46;21003;-73
2024/01/29 03:13:48;;;;;;;2.17;1.97;;;6.20;74.70;;;7.81;49.88;102486.78;3082308;46;20501;-74
2024/01/29 03:16:16;;;;;;;3.20;2.00;;;6.20;74.70;;;7.79;50.03;102481.66;3082304;46;20566;-73
2024/01/29 03:18:44;;;;;;;3.13;2.20;;;6.20;74.60;;;7.80;50.01;102477.22;3081518;46;20442;-73
2024/01/29 03:21:14;;;;;;;3.03;2.57;;;6.20;74.70;;;7.81;49.88;102484.16;3082196;46;20455;-74
2024/01/29 03:23:42;;;;;;;5.80;2.47;;;6.20;74.70;;;7.82;50.00;102483.22;3082442;46;20431;-74
2024/01/29 03:26:10;;;;;;;2.67;2.17;;;6.20;74.50;;;7.80;49.77;102480.69;3081999;46;20564;-74
2024/01/29 03:28:40;;;;;;;3.43;2.33;;;6.20;74.40;;;7.81;49.72;102477.13;3081851;46;20539;-74
2024/01/29 03:31:08;;;;;;;2.93;2.17;;;6.20;74.30;;;7.81;49.53;102476.28;3082461;46;20428;-73
2024/01/29 03:33:37;;;;;;;3.80;2.53;;;6.20;74.20;;;7.80;49.70;102471.97;3082001;46;20431;-73
2024/01/29 03:36:07;;;;;;;3.53;2.43;;;6.20;74.20;;;7.79;49.54;102468.53;3082156;46;20452;-74
2024/01/29 03:38:36;;;;;;;3.07;2.07;;;6.20;74.20;;;7.78;49.52;102466.88;3081555;46;21001;-74
2024/01/29 03:41:04;;;;;;;2.60;2.40;;;6.20;74.00;;;7.78;49.59;102466.88;3082026;46;20427;-73
2024/01/29 03:43:32;;;;;;;3.83;2.10;;;6.20;74.00;;;7.78;49.48;102466.88;3082130;46;21250;-73
2024/01/29 03:46:01;;;;;;;3.30;2.00;;;6.20;73.90;;;7.77;49.50;102454.72;3081851;46;20493;-75
2024/01/29 03:48:29;;;;;;;3.63;2.20;;;6.20;74.00;;;7.77;49.61;102462.59;3081575;46;20473;-73
2024/01/29 03:50:58;;;;;;;3.30;1.77;;;6.20;73.90;;;7.77;49.61;102459.13;3082071;46;21007;-74
2024/01/29 03:53:26;;;;;;;3.00;2.20;;;6.20;74.00;;;7.75;49.60;102461.84;3082014;46;20568;-73
2024/01/29 03:55:55;;;;;;;3.40;1.87;;;6.20;74.00;;;7.75;49.57;102459.22;3081869;46;20486;-73
2024/01/29 03:58:23;;;;;;;3.40;2.43;;;6.20;73.90;;;7.74;49.58;102454.94;3081510;46;20942;-74
2024/01/29 04:00:51;;;;;;;2.40;2.17;;;6.20;74.00;;;7.75;49.68;102450.53;3081794;46;20451;-74
2024/01/29 04:03:20;;;;;;;2.77;1.90;;;6.20;74.00;;;7.73;49.68;102442.78;3081564;46;21012;-73
2024/01/29 04:05:48;;;;;;;3.17;2.40;;;6.20;74.00;;;7.72;49.46;102449.00;3081835;46;20460;-73
2024/01/29 04:08:17;;;;;;;2.33;1.90;;;6.20;73.80;;;7.70;49.42;102443.00;3081168;46;20489;-74
2024/01/29 04:10:45;;;;;;;3.93;2.23;;;6.20;73.80;;;7.69;49.67;102441.34;3081974;46;20435;-74
2024/01/29 04:13:14;;;;;;;2.43;1.93;;;6.10;73.70;;;7.68;49.48;102454.56;3081686;46;20453;-74
2024/01/29 04:15:42;;;;;;;3.93;2.07;;;6.10;74.30;;;7.65;49.26;102455.63;3081648;46;20427;-73
2024/01/29 04:18:11;;;;;;;2.57;2.00;;;6.10;73.40;;;7.65;49.50;102455.63;3081048;46;20560;-73
2024/01/29 04:20:39;;;;;;;2.53;2.10;;;6.10;73.60;;;7.65;49.75;102449.56;3081757;46;20428;-73
2024/01/29 04:23:08;;;;;;;3.27;2.00;;;6.10;73.70;;;7.64;49.71;102455.72;3081519;46;20499;-73
2024/01/29 04:25:37;;;;;;;3.87;2.10;;;6.10;73.70;;;7.62;49.42;102450.59;3081572;46;21016;-73
2024/01/29 04:28:05;;;;;;;3.40;2.30;;;6.10;73.60;;;7.61;49.38;102459.41;3081274;46;20466;-74
2024/01/29 04:30:34;;;;;;;2.73;2.17;;;6.10;73.70;;;7.60;49.59;102454.28;3081840;46;20434;-74
2024/01/29 04:33:03;;;;;;;3.63;2.13;;;6.10;73.60;;;7.59;49.53;102456.06;3081577;46;21072;-73
2024/01/29 04:35:31;;;;;;;3.03;2.10;;;6.00;73.50;;;7.57;49.66;102460.59;3081610;46;21008;-73
2024/01/29 04:37:59;;;;;;;5.27;2.30;;;6.00;73.60;;;7.56;49.59;102456.28;3080932;46;20439;-73
2024/01/29 04:40:28;;;;;;;2.87;2.10;;;6.00;73.60;;;7.54;49.54;102460.81;3081450;46;20910;-73
2024/01/29 04:42:56;;;;;;;3.63;2.47;;;6.00;73.60;;;7.51;49.70;102458.44;3081367;46;20436;-74
2024/01/29 04:45:25;;;;;;;4.33;2.20;;;6.00;73.70;;;7.48;49.79;102451.63;3081507;46;21161;-73
2024/01/29 04:47:53;;;;;;;3.10;2.40;;;6.00;73.70;;;7.49;49.59;102445.44;3080933;46;21071;-73
2024/01/29 04:50:21;;;;;;;2.30;1.93;;;6.00;73.80;;;7.48;49.80;102448.16;3081210;46;20484;-73
2024/01/29 04:52:50;;;;;;;3.67;1.90;;;5.90;73.80;;;7.48;49.68;102450.78;3081343;46;20462;-73
2024/01/29 04:55:18;;;;;;;3.03;1.73;;;5.90;74.00;;;7.47;49.60;102454.34;3081140;46;21160;-73
2024/01/29 04:57:47;;;;;;;2.10;1.90;;;5.90;73.80;;;7.45;49.81;102451.00;3080894;46;20500;-74
2024/01/29 05:00:15;;;;;;;2.40;1.83;;;5.90;73.80;;;7.45;49.54;102448.38;3081266;46;20446;-74
2024/01/29 05:02:44;;;;;;;3.27;2.00;;;5.90;73.80;;;7.43;49.53;102452.91;3081210;46;20458;-74
2024/01/29 05:05:12;;;;;;;2.90;2.07;;;5.90;73.50;;;7.40;49.11;102451.34;3081167;46;20466;-73
2024/01/29 05:07:41;;;;;;;1.97;1.77;;;5.90;73.10;;;7.40;49.21;102455.75;3081029;46;20615;-74
2024/01/29 05:10:09;;;;;;;3.57;2.30;;;5.90;72.90;;;7.41;49.21;102457.44;3080956;46;21022;-74
2024/01/29 05:12:38;;;;;;;4.60;2.13;;;5.90;73.00;;;7.42;49.46;102451.22;3081076;46;20446;-74
2024/01/29 05:15:07;;;;;;;2.43;1.80;;;5.90;73.20;;;7.43;49.52;102445.03;3081180;46;20437;-73
2024/01/29 05:17:35;;;;;;;3.23;2.37;;;5.90;73.20;;;7.43;49.45;102456.38;3080747;46;20440;-73
2024/01/29 05:20:05;;;;;;;5.17;2.67;;;5.90;73.10;;;7.42;49.40;102444.19;3081114;46;20434;-74
2024/01/29 05:22:33;;;;;;;2.97;2.40;;;5.90;73.30;;;7.42;49.40;102448.59;3080726;46;21009;-74
2024/01/29 05:25:02;;;;;;;2.37;2.10;;;5.90;73.10;;;7.41;49.39;102446.94;3080977;46;20435;-73
2024/01/29 05:27:31;;;;;;;3.57;2.33;;;5.90;73.00;;;7.41;49.48;102445.16;3080651;46;20446;-73
2024/01/29 05:30:00;;;;;;;2.47;2.00;;;5.90;73.10;;;7.41;49.23;102446.94;3080871;46;20521;-73
2024/01/29 05:32:28;;;;;;;2.37;2.10;;;5.90;72.90;;;7.40;49.32;102450.50;3080724;46;20423;-74
2024/01/29 05:34:57;;;;;;;3.93;2.27;;;5.90;72.90;;;7.39;49.32;102448.84;3083153;46;20434;-74
2024/01/29 05:37:26;;;;;;;3.87;2.00;;;5.90;72.70;;;7.39;49.34;102448.84;3083211;46;20583;-73
2024/01/29 05:39:55;;;;;;;2.00;1.80;;;5.90;72.80;;;7.41;49.12;102458.25;3084518;46;20632;-73
2024/01/29 05:42:24;;;;;;;3.03;1.97;;;5.90;72.70;;;7.41;49.00;102463.50;3083136;46;20436;-73
2024/01/29 05:44:52;;;;;;;4.67;2.30;;;5.90;72.90;;;7.43;49.03;102458.13;3083202;46;20996;-73
2024/01/29 05:47:20;;;;;;;3.83;2.00;;;5.90;72.70;;;7.44;49.27;102459.81;3083087;46;20457;-74
2024/01/29 05:49:49;;;;;;;3.10;2.00;;;5.90;72.70;;;7.44;49.28;102455.41;3083208;46;20462;-73
2024/01/29 05:52:18;;;;;;;4.13;2.13;;;5.90;72.70;;;7.44;49.27;102452.78;3083265;46;20438;-74
2024/01/29 05:54:47;;;;;;;4.27;2.50;;;5.90;72.80;;;7.44;49.00;102446.72;3082988;46;20462;-73
2024/01/29 05:57:17;;;;;;;1.93;1.70;;;5.90;72.70;;;7.43;49.20;102451.13;3082972;46;20485;-74
2024/01/29 05:59:45;;;;;;;7.00;2.30;;;5.90;72.60;;;7.42;49.19;102443.34;3083179;46;20448;-73
2024/01/29 06:02:14;;;;;;;3.50;1.93;;;5.90;72.60;;;7.42;49.11;102453.84;3083123;46;20566;-73
2024/01/29 06:04:42;;;;;;;2.53;2.23;;;5.90;72.50;;;7.39;49.25;102448.84;3083134;46;20432;-73
2024/01/29 06:07:11;;;;;;;3.80;2.27;;;5.90;72.30;;;7.39;49.23;102454.91;3082762;46;21009;-73
2024/01/29 06:09:39;;;;;;;4.53;2.10;;;5.90;72.40;;;7.40;49.03;102453.13;3082987;46;21010;-73
2024/01/29 06:12:08;;;;;;;3.70;2.40;;;5.90;72.40;;;7.41;49.38;102444.31;3083085;46;21019;-73
2024/01/29 06:14:36;;;;;;;3.23;2.40;;;5.90;73.30;;;7.40;49.33;102448.72;3082339;46;20996;-74
2024/01/29 06:17:05;;;;;;;3.30;2.00;;;5.90;72.80;;;7.40;49.36;102445.25;3082655;46;20493;-73
2024/01/29 06:19:33;;;;;;;1.97;1.87;;;5.90;73.10;;;7.39;49.32;102441.00;3082804;46;20423;-73
2024/01/29 06:22:22;;;;;;;2.73;2.17;;;5.90;73.20;;;7.39;49.44;102443.59;3082787;46;20451;-73
2024/01/29 06:24:50;;;;;;;5.33;2.40;;;5.90;73.20;;;7.36;49.42;102439.44;3082782;46;20606;-74
2024/01/29 06:27:18;;;;;;;2.83;2.37;;;5.90;73.20;;;7.36;49.63;102441.19;3082455;46;20438;-73
2024/01/29 06:29:47;;;;;;;4.93;3.10;;;5.80;73.20;;;7.33;49.53;102441.41;3082793;46;20434;-74
2024/01/29 06:32:15;;;;;;;7.07;3.00;;;5.80;73.30;;;7.32;49.59;102447.63;3082480;46;20577;-73
2024/01/29 06:34:43;;;;;;;5.83;3.23;;;5.80;73.40;;;7.31;49.56;102436.31;3082669;46;20452;-73
2024/01/29 06:37:12;;;;;;;5.97;3.53;;;5.80;73.40;;;7.30;49.51;102446.88;3082830;46;20522;-73
2024/01/29 06:39:40;;;;;;;7.43;3.53;;;5.80;73.50;;;7.29;49.74;102450.44;3082789;46;20430;-73
2024/01/29 06:42:09;;;;;;;5.10;2.90;;;5.70;73.30;;;7.29;49.74;102447.84;3082495;46;20453;-73
2024/01/29 06:44:37;;;;;;;6.63;3.03;;;5.80;73.40;;;7.27;49.56;102449.72;3081117;46;20563;-73
2024/01/29 06:47:05;;;;;;;5.53;2.63;;;5.80;73.30;;;7.26;49.17;102440.19;3081940;46;21015;-73
2024/01/29 06:49:35;;;;;;;5.03;3.20;;;5.70;74.00;;;7.24;49.51;102440.31;3082434;46;20545;-73
2024/01/29 06:52:04;;;;;;;3.70;2.73;;;5.70;73.10;;;7.23;49.45;102428.16;3082562;46;20521;-73
2024/01/29 06:54:37;;;;;;;7.17;2.97;;;5.70;73.10;;;7.25;49.67;102428.06;3082460;46;20530;-73
2024/01/29 06:57:06;;;;;;;6.70;3.17;;;5.70;73.30;;;7.25;49.69;102428.06;3081623;43;20450;-73
2024/01/29 06:59:37;;;;;;;6.17;2.67;;;5.70;73.70;;;7.26;49.72;102427.09;3082080;46;21024;-73
2024/01/29 07:02:07;;;;;;;6.67;2.60;;;5.80;73.50;;;7.26;49.82;102427.09;3082040;46;20484;-73
2024/01/29 07:04:36;;;;;;;3.33;2.40;;;5.70;73.50;;;7.26;49.57;102440.19;3082111;46;20448;-73
2024/01/29 07:07:05;;;;;;;2.63;2.43;;;5.70;73.50;;;7.24;49.64;102444.72;3082256;46;20460;-73
2024/01/29 07:09:33;;;;;;;4.30;2.40;;;5.70;73.40;;;7.20;49.47;102451.13;3081864;43;21125;-73
2024/01/29 07:12:02;;;;;;;8.77;2.53;;;5.80;73.30;;;7.18;49.61;102455.63;3081466;46;20450;-73
2024/01/29 07:14:30;;;;;;;4.53;2.50;;;5.70;73.10;;;7.16;49.96;102450.50;3081464;46;20633;-73
2024/01/29 07:16:58;;;;;;;2.20;1.97;;;5.80;73.10;;;7.18;49.58;102448.59;3081443;46;21038;-73
2024/01/29 07:19:33;;;;;;;2.30;2.10;;;5.80;73.20;;;7.19;49.68;102449.44;3081636;46;20448;-73
2024/01/29 07:22:04;;;;;;;4.10;2.07;;;5.70;73.20;;;7.19;49.89;102446.81;3081924;46;20463;-73
2024/01/29 07:25:00;;;;;;;3.10;2.30;;;5.80;73.20;;;7.19;49.81;102449.44;3082185;46;20438;-73
2024/01/29 07:28:27;;;;;;;;;;;;;;;;;;;;;
2024/01/29 07:31:14;;;;;;;4.17;2.10;;;5.80;73.20;;;7.25;49.64;102462.09;3080686;46;20438;-72
2024/01/29 07:33:46;;;;;;;2.40;2.20;;;5.80;73.40;;;7.26;49.65;102459.38;3081775;43;20560;-74
2024/01/29 07:36:23;;;;;;;3.20;2.27;;;5.80;73.40;;;7.27;49.89;102465.44;3081709;46;20476;-74
2024/01/29 07:38:52;;;;;;;3.73;2.20;;;5.70;73.20;;;7.27;49.62;102465.44;3081171;46;20488;-73
2024/01/29 07:41:20;;;;;;;3.80;3.13;;;5.80;73.20;;;7.30;49.88;102459.97;3081752;46;20624;-73
2024/01/29 07:43:49;;;;;;;3.00;2.30;;;5.80;73.30;;;7.32;49.80;102456.28;3081919;46;20443;-74
2024/01/29 07:46:17;;;;;;;3.63;2.57;;;5.80;73.30;;;7.38;49.85;102449.78;3081699;46;20432;-73
2024/01/29 07:48:46;;;;;;;4.60;2.30;;;5.80;73.40;;;7.41;49.76;102453.03;3080664;46;20464;-73
2024/01/29 07:51:14;;;;;;;3.40;2.77;;;5.80;73.70;;;7.45;49.80;102446.59;3081613;46;21082;-73
2024/01/29 07:53:43;;;;;;;4.60;2.43;;;5.90;74.60;;;7.50;49.84;102460.22;3081448;46;20453;-73
2024/01/29 07:56:11;;;;;;;4.50;2.63;;;5.90;73.90;;;7.53;49.25;102469.63;3081198;46;21116;-73
2024/01/29 07:58:40;;;;;;;5.50;2.90;;;5.90;73.70;;;7.55;49.47;102459.88;3081318;46;20508;-73
2024/01/29 08:01:08;;;;;;;3.77;2.73;;;5.90;73.40;;;7.60;49.65;102468.22;3081606;46;20525;-73
2024/01/29 08:03:37;;;;;;;4.27;2.90;;;6.00;73.70;;;7.65;49.41;102463.50;3081807;46;20427;-74
2024/01/29 08:06:05;;;;;;;4.73;2.23;;;6.00;73.80;;;7.71;49.55;102467.41;3081926;46;20432;-73
2024/01/29 08:08:36;;;;;;;3.80;2.80;;;6.00;73.90;;;7.72;48.98;102462.09;3081354;46;20444;-73
2024/01/29 08:11:04;;;;;;;6.73;2.80;;;6.10;73.30;;;7.71;48.83;102465.66;3081724;43;20506;-73
2024/01/29 08:13:33;;;;;;;3.07;2.33;;;6.10;72.90;;;7.71;49.00;102470.03;3081381;46;21020;-74
2024/01/29 08:16:01;;;;;;;2.87;2.33;;;6.10;72.70;;;7.73;49.30;102478.63;3081411;46;20434;-74
2024/01/29 08:18:30;;;;;;;3.73;2.63;;;6.20;72.80;;;7.76;49.14;102484.50;3081145;46;20441;-73
2024/01/29 08:20:58;;;;;;;4.60;2.80;;;6.20;72.90;;;7.84;48.98;102490.00;3081816;46;20984;-73
2024/01/29 08:23:27;;;;;;;6.10;3.07;;;6.20;72.90;;;7.94;49.02;102492.78;3081414;43;20584;-74
2024/01/29 08:25:56;;;;;;;4.37;2.50;;;6.30;73.30;;;8.04;48.69;102483.25;3081603;46;20509;-73
2024/01/29 08:28:24;;;;;;;8.47;4.50;;;6.30;73.20;;;8.14;48.89;102477.22;3080928;46;20446;-74
2024/01/29 08:30:54;;;;;;;3.13;2.73;;;6.40;73.40;;;8.24;48.40;102479.16;3081663;46;20541;-73
2024/01/29 08:33:23;;;;;;;3.60;2.80;;;6.50;73.20;;;8.32;48.77;102471.56;3081301;46;21010;-73
2024/01/29 08:35:52;;;;;;;2.90;2.60;;;6.50;73.30;;;8.40;48.55;102474.44;3081514;46;21067;-73
2024/01/29 08:38:41;;;;;;;5.57;2.40;;;6.60;73.20;;;8.47;48.03;102478.25;3080310;44;20563;-74
2024/01/29 08:41:09;;;;;;;5.83;2.33;;;6.60;72.60;;;8.54;48.04;102474.19;3080556;46;20658;-73
2024/01/29 08:43:38;;;;;;;3.20;2.77;;;6.70;72.30;;;8.60;47.91;102477.22;3080605;46;20483;-74
2024/01/29 08:46:06;;;;;;;5.23;2.77;;;6.80;72.30;;;8.67;47.94;102478.41;3081001;46;20432;-73
2024/01/29 08:48:35;;;;;;;3.97;2.63;;;6.80;72.10;;;8.76;47.71;102482.09;3080659;46;21024;-73
2024/01/29 08:51:04;;;;;;;3.83;2.40;;;6.90;72.40;;;8.84;47.93;102488.41;3080814;46;21032;-72
2024/01/29 08:53:32;;;;;;;5.87;2.83;;;7.00;72.40;;;8.93;47.90;102489.50;3081495;46;20439;-73
2024/01/29 08:56:01;;;;;;;4.77;2.83;;;7.10;72.50;;;9.00;47.37;102490.69;3080836;46;20449;-73
2024/01/29 08:58:29;;;;;;;4.60;2.90;;;7.10;72.20;;;9.07;47.25;102488.38;3080600;46;20439;-73
2024/01/29 09:00:58;;;;;;;4.67;2.77;;;7.20;71.90;;;9.12;46.84;102489.72;3081388;46;20555;-73
2024/01/29 09:03:27;;;;;;;4.10;2.80;;;7.30;71.60;;;9.15;47.08;102494.69;3080213;46;20427;-73
2024/01/29 09:05:55;;;;;;;5.37;2.70;;;7.30;71.30;;;9.20;46.47;102500.41;3080717;46;20449;-73
2024/01/29 09:08:27;;;;;;;4.63;3.40;;;7.40;70.80;;;9.24;46.32;102496.63;3079591;46;21006;-74
2024/01/29 09:10:56;;;;;;;4.77;3.30;;;7.40;70.50;;;9.30;46.42;102498.75;3081066;46;20427;-73
2024/01/29 09:13:24;;;;;;;4.50;2.90;;;7.50;70.30;;;9.39;46.74;102508.50;3080764;46;20534;-73
2024/01/29 09:15:53;;;;;;;4.43;3.17;;;7.60;70.60;;;9.47;46.24;102505.25;3080562;46;20426;-73
2024/01/29 09:18:21;;;;;;;4.33;2.90;;;7.60;70.40;;;9.57;46.06;102508.00;3080263;46;20462;-73
2024/01/29 09:20:49;;;;;;;4.50;2.50;;;7.70;70.10;;;9.66;46.22;102515.13;3080258;46;20450;-73
2024/01/29 09:23:18;;;;;;;3.83;2.73;;;7.80;70.10;;;9.75;45.83;102509.09;3079930;46;20585;-73
2024/01/29 09:25:47;;;;;;;5.10;3.13;;;7.80;69.70;;;9.83;45.30;102517.22;3080114;46;20431;-73
2024/01/29 09:28:15;;;;;;;3.60;2.87;;;8.00;69.10;;;9.91;45.25;102525.31;3079572;43;20500;-73
2024/01/29 09:30:44;;;;;;;3.07;2.50;;;8.10;68.70;;;9.99;45.10;102517.63;3081314;46;20974;-74
2024/01/29 09:33:17;;;;;;;4.37;2.73;;;8.10;68.30;;;10.06;44.98;102521.41;3080809;46;20453;-74
2024/01/29 09:35:49;;;;;;;4.47;2.80;;;8.20;68.40;;;10.12;44.79;102520.94;3080069;46;20565;-75
2024/01/29 09:38:17;;;;;;;4.23;3.10;;;8.30;67.80;;;10.20;44.79;102521.13;3079498;46;20509;-73
2024/01/29 09:40:46;;;;;;;3.00;2.70;;;8.40;67.90;;;10.25;44.65;102511.06;3080111;46;20455;-73
2024/01/29 09:43:17;;;;;;;3.90;2.80;;;8.50;67.60;;;10.35;44.64;102517.22;3079810;46;20475;-73
2024/01/29 09:45:50;;;;;;;5.93;2.90;;;8.60;67.70;;;10.48;44.65;102520.50;3078656;46;20427;-73
2024/01/29 09:48:21;;;;;;;5.63;2.73;;;8.70;67.80;;;10.67;44.44;102525.84;3079291;46;20548;-73
2024/01/29 09:50:50;;;;;;;4.23;2.93;;;8.80;68.00;;;11.14;43.93;102529.66;3079148;46;20467;-74
2024/01/29 09:53:21;;;;;;;4.37;2.87;;;8.90;67.70;;;11.71;43.77;102523.72;3080299;46;20460;-74
2024/01/29 09:55:50;;;;;;;6.73;3.30;;;9.20;68.50;;;12.27;42.94;102520.31;3080650;46;20453;-73
2024/01/29 09:58:19;;;;;;;3.57;2.90;;;9.60;67.60;;;12.77;42.73;102525.22;3079419;46;20465;-73
2024/01/29 10:00:47;;;;;;;3.40;2.57;;;10.00;66.90;;;13.21;41.20;102520.19;3080333;46;20487;-73
2024/01/29 10:03:27;;;;;;;4.37;3.10;;;10.40;64.40;;;13.62;40.34;102527.56;3080531;46;21005;-74
2024/01/29 10:05:57;;;;;;;3.17;2.87;;;10.90;63.20;;;13.87;38.98;102528.63;3080122;46;20515;-74
2024/01/29 10:08:29;;;;;;;3.40;3.03;;;11.30;60.00;;;14.12;39.06;102531.34;3079850;46;21014;-73
2024/01/29 10:10:57;;;;;;;6.17;2.87;;;11.60;59.60;;;14.32;37.70;102532.03;3079604;46;20427;-74
2024/01/29 10:13:26;;;;;;;4.50;2.97;;;11.80;58.20;;;14.64;38.84;102534.88;3080345;46;20457;-73
2024/01/29 10:15:56;;;;;;;3.23;2.87;;;12.10;59.80;;;14.87;38.12;102536.03;3080360;46;20551;-73
2024/01/29 10:18:25;;;;;;;5.23;3.00;;;12.30;58.80;;;15.18;36.74;102535.47;3079019;46;20529;-74
2024/01/29 10:21:06;;;;;;;5.13;2.93;;;12.50;56.80;;;15.61;36.78;102531.81;3082224;46;20990;-74
2024/01/29 10:23:34;;;;;;;2.87;2.53;;;12.80;57.00;;;16.14;36.56;102533.00;3082727;46;20428;-73
2024/01/29 10:26:03;;;;;;;5.27;3.03;;;13.20;57.20;;;16.61;36.06;102537.66;3082431;46;20439;-73
2024/01/29 10:28:31;;;;;;;4.43;3.20;;;13.60;56.20;;;16.85;35.35;102537.59;3082169;46;21075;-74
2024/01/29 10:31:00;;;;;;;3.43;2.70;;;14.00;55.40;;;17.18;34.39;102535.63;3082460;46;20999;-74
2024/01/29 10:33:28;;;;;;;4.57;3.27;;;14.40;52.90;;;17.52;34.40;102534.31;3082458;46;20601;-74